Time;durP1;ratioP1;P1;durP2;ratioP2;P2;SDS_P1;SDS_P2;PMS_P1;PMS_P2;Temp;Humidity;BMP_temperature;BMP_pressure;BME280_temperature;BME280_humidity;BME280_pressure;Samples;Min_cycle;Max_cycle;Signal;HPM_P1;HPM_P2
2022/03/25 00:01:54;;;;;;;43.80;33.47;;;;;;;11.67;50.77;102580.22;5019558;28;20841;-73
2022/03/25 00:04:19;;;;;;;49.63;34.30;;;;;;;11.56;51.11;102582.44;5019953;28;20218;-73
2022/03/25 00:06:44;;;;;;;50.70;35.10;;;;;;;11.57;50.82;102579.00;5018751;28;20597;-73
2022/03/25 00:09:10;;;;;;;53.97;34.53;;;;;;;11.37;51.45;102575.69;5019855;28;20614;-73
2022/03/25 00:11:35;;;;;;;48.93;33.30;;;;;;;11.44;51.40;102575.06;5019666;28;20175;-73
2022/03/25 00:14:01;;;;;;;48.33;32.57;;;;;;;11.44;51.59;102577.69;5019426;28;20178;-72
2022/03/25 00:16:26;;;;;;;56.23;33.93;;;;;;;11.29;52.00;102578.03;5019328;28;20170;-72
2022/03/25 00:18:51;;;;;;;52.20;33.43;;;;;;;11.20;52.60;102575.06;5019864;28;20199;-72
2022/03/25 00:21:17;;;;;;;53.67;33.83;;;;;;;11.34;52.19;102574.69;5034950;28;20617;-72
2022/03/25 00:23:42;;;;;;;44.97;32.00;;;;;;;11.29;51.95;102571.91;5018981;28;20214;-73
2022/03/25 00:26:07;;;;;;;55.20;34.63;;;;;;;11.26;52.27;102571.81;5020128;28;20424;-73
2022/03/25 00:28:33;;;;;;;44.03;32.60;;;;;;;11.20;52.70;102577.69;5019399;28;20246;-72
2022/03/25 00:30:58;;;;;;;57.20;33.73;;;;;;;11.08;52.37;102569.41;5018973;28;20182;-72
2022/03/25 00:33:23;;;;;;;55.13;33.77;;;;;;;11.06;52.65;102573.69;5019035;28;20226;-72
2022/03/25 00:35:49;;;;;;;49.57;32.63;;;;;;;11.06;52.81;102574.56;5019053;28;20183;-71
2022/03/25 00:38:14;;;;;;;47.90;33.53;;;;;;;11.03;53.02;102577.06;5019467;28;20514;-71
2022/03/25 00:40:39;;;;;;;48.47;33.13;;;;;;;11.00;53.06;102579.56;5018634;28;20612;-72
2022/03/25 00:43:06;;;;;;;53.93;32.63;;;;;;;10.92;53.50;102575.78;5017943;28;20210;-71
2022/03/25 00:45:32;;;;;;;47.43;33.00;;;;;;;10.82;53.09;102569.31;5019506;28;20166;-71
2022/03/25 00:47:58;;;;;;;46.33;32.87;;;;;;;11.01;52.56;102575.22;5018974;28;20418;-72
2022/03/25 00:50:24;;;;;;;49.40;33.70;;;;;;;10.95;52.91;102570.69;5034241;28;20532;-72
2022/03/25 00:52:50;;;;;;;46.30;34.33;;;;;;;10.95;52.88;102576.78;5019353;28;20413;-71
2022/03/25 00:55:15;;;;;;;48.17;33.73;;;;;;;11.09;52.56;102564.22;5018619;28;20410;-71
2022/03/25 00:57:41;;;;;;;53.40;34.70;;;;;;;10.99;52.57;102574.28;5034455;28;20209;-72
2022/03/25 01:00:07;;;;;;;49.30;33.57;;;;;;;10.97;53.17;102571.59;5019397;28;20469;-71
2022/03/25 01:02:34;;;;;;;51.53;33.90;;;;;;;11.04;52.91;102560.59;5018521;28;20199;-73
2022/03/25 01:04:59;;;;;;;44.73;33.80;;;;;;;10.90;52.93;102570.50;5018616;28;20473;-72
2022/03/25 01:07:24;;;;;;;52.43;35.27;;;;;;;10.84;53.07;102566.75;5019059;28;20406;-71
2022/03/25 01:09:50;;;;;;;63.83;40.80;;;;;;;11.06;52.62;102571.97;5018554;28;20182;-72
2022/03/25 01:12:15;;;;;;;56.97;38.10;;;;;;;11.09;52.63;102569.44;5018390;28;20174;-72
2022/03/25 01:14:40;;;;;;;46.43;35.50;;;;;;;11.04;53.26;102573.63;5034589;28;20167;-73
2022/03/25 01:17:06;;;;;;;51.83;35.53;;;;;;;10.90;53.26;102572.22;5034289;28;20191;-73
2022/03/25 01:19:31;;;;;;;56.00;38.17;;;;;;;10.97;53.18;102573.34;5018769;28;20186;-72
2022/03/25 01:21:57;;;;;;;64.57;37.57;;;;;;;10.81;53.31;102574.47;5018808;28;20222;-71
2022/03/25 01:24:23;;;;;;;54.13;36.90;;;;;;;10.63;54.15;102567.72;5018369;28;20217;-71
2022/03/25 01:26:48;;;;;;;52.23;37.43;;;;;;;10.44;54.53;102571.31;5018233;28;20170;-71
2022/03/25 01:29:14;;;;;;;55.70;35.27;;;;;;;10.86;53.82;102565.09;5018658;28;20449;-72
2022/03/25 01:31:39;;;;;;;50.03;35.23;;;;;;;10.90;53.26;102570.50;5018469;28;20490;-73
2022/03/25 01:34:05;;;;;;;55.00;37.70;;;;;;;10.73;53.84;102569.88;5018287;28;20242;-73
2022/03/25 01:36:30;;;;;;;60.07;38.63;;;;;;;11.04;52.75;102570.13;5021977;28;20231;-72
2022/03/25 01:38:56;;;;;;;52.50;37.90;;;;;;;11.49;51.68;102571.72;5022329;28;20233;-73
2022/03/25 01:41:22;;;;;;;51.70;37.17;;;;;;;11.52;51.91;102574.47;5022075;28;20436;-71
2022/03/25 01:43:52;;;;;;;48.77;34.10;;;;;;;11.37;51.92;102566.97;5022944;28;20456;-72
2022/03/25 01:46:17;;;;;;;43.83;33.77;;;;;;;11.32;52.45;102563.31;5021537;28;20197;-72
2022/03/25 01:48:43;;;;;;;49.80;34.77;;;;;;;11.35;52.18;102577.38;5022061;28;20822;-72
2022/03/25 01:51:08;;;;;;;51.47;35.90;;;;;;;11.14;52.40;102567.03;5022459;28;20178;-72
2022/03/25 01:53:33;;;;;;;55.50;33.53;;;;;;;11.27;52.54;102564.03;5022046;28;20494;-71
2022/03/25 01:56:00;;;;;;;56.23;36.10;;;;;;;11.19;52.92;102564.56;5022036;28;20170;-72
2022/03/25 01:58:28;;;;;;;51.27;36.17;;;;;;;11.19;52.72;102561.97;5022526;28;20528;-71
2022/03/25 02:00:53;;;;;;;57.57;38.53;;;;;;;11.29;52.60;102556.25;5021831;28;20422;-73
2022/03/25 02:03:19;;;;;;;60.57;37.60;;;;;;;11.24;52.34;102563.94;5021067;28;20468;-72
2022/03/25 02:05:46;;;;;;;51.53;37.13;;;;;;;11.31;52.20;102562.41;5022406;28;20213;-72
2022/03/25 02:08:11;;;;;;;56.00;36.00;;;;;;;11.18;52.45;102560.22;5021841;28;20209;-73
2022/03/25 02:10:38;;;;;;;53.83;35.00;;;;;;;11.23;52.46;102558.63;5021662;28;20693;-74
2022/03/25 02:13:04;;;;;;;50.37;35.00;;;;;;;11.22;52.46;102564.72;5022343;28;20178;-72
2022/03/25 02:15:40;;;;;;;46.77;34.13;;;;;;;11.12;52.63;102564.38;5021820;28;20426;-73
2022/03/25 02:18:09;;;;;;;50.50;33.43;;;;;;;10.85;53.12;102565.94;5024454;28;20189;-72
2022/03/25 02:20:35;;;;;;;48.70;33.27;;;;;;;10.93;53.25;102561.88;5022404;28;20425;-73
2022/03/25 02:23:01;;;;;;;48.53;35.70;;;;;;;10.86;53.26;102565.09;5021511;28;20426;-73
2022/03/25 02:25:27;;;;;;;46.63;34.30;;;;;;;10.89;52.92;102566.13;5037871;28;20513;-74
2022/03/25 02:27:53;;;;;;;66.13;43.43;;;;;;;10.55;54.01;102563.94;5021552;28;20500;-72
2022/03/25 02:30:18;;;;;;;76.90;47.10;;;;;;;10.65;54.32;102565.16;5021340;28;20174;-73
2022/03/25 02:32:43;;;;;;;48.80;33.10;;;;;;;10.94;53.48;102558.47;5021657;28;20462;-71
2022/03/25 02:35:10;;;;;;;49.77;32.90;;;;;;;10.97;53.13;102558.56;5021321;28;20233;-72
2022/03/25 02:37:35;;;;;;;51.47;33.73;;;;;;;10.93;53.23;102556.66;5021624;28;20174;-73
2022/03/25 02:40:01;;;;;;;43.23;32.27;;;;;;;10.83;53.18;102560.66;5036925;28;20414;-72
2022/03/25 02:42:27;;;;;;;46.93;33.37;;;;;;;10.83;53.82;102565.00;5021121;28;20245;-72
2022/03/25 02:44:53;;;;;;;44.37;33.70;;;;;;;10.76;53.86;102559.53;5021641;28;20476;-73
2022/03/25 02:47:18;;;;;;;45.60;33.03;;;;;;;10.86;53.77;102555.56;5021108;28;20520;-72
2022/03/25 02:49:43;;;;;;;47.60;34.13;;;;;;;10.73;53.53;102558.53;5021178;28;20548;-72
2022/03/25 02:52:09;;;;;;;46.87;31.80;;;;;;;10.72;54.03;102560.25;5021291;28;20410;-73
2022/03/25 02:54:34;;;;;;;45.60;31.80;;;;;;;10.55;54.44;102562.22;5021188;28;20265;-71
2022/03/25 02:56:59;;;;;;;47.30;32.70;;;;;;;10.60;54.57;102562.38;5020908;28;20266;-72
2022/03/25 02:59:25;;;;;;;53.20;33.20;;;;;;;10.38;54.99;102558.06;5021419;28;20175;-72
2022/03/25 03:01:51;;;;;;;52.30;32.70;;;;;;;10.61;54.35;102554.63;5020825;28;20175;-72
2022/03/25 03:04:17;;;;;;;46.40;33.33;;;;;;;10.46;54.95;102554.03;5020654;28;20552;-71
2022/03/25 03:06:43;;;;;;;49.67;34.83;;;;;;;10.36;55.27;102549.28;5021085;28;20163;-72
2022/03/25 03:09:09;;;;;;;47.70;33.90;;;;;;;10.77;53.93;102556.09;5020941;28;20895;-73
2022/03/25 03:11:35;;;;;;;44.40;32.63;;;;;;;10.69;54.10;102556.63;5020549;28;20517;-73
2022/03/25 03:14:01;;;;;;;55.80;33.83;;;;;;;10.41;54.78;102556.44;5021197;28;20198;-71
2022/03/25 03:16:26;;;;;;;51.50;32.87;;;;;;;10.43;55.31;102553.91;5020535;28;20430;-71
2022/03/25 03:18:51;;;;;;;52.33;35.40;;;;;;;10.32;55.65;102550.81;5020414;28;20183;-73
2022/03/25 03:21:17;;;;;;;46.73;31.10;;;;;;;10.21;55.62;102553.00;5020818;28;20233;-72
2022/03/25 03:23:43;;;;;;;48.40;34.73;;;;;;;10.14;56.18;102555.31;5020321;28;20210;-73
2022/03/25 03:26:09;;;;;;;46.90;33.27;;;;;;;10.22;55.99;102543.50;5020360;28;20421;-73
2022/03/25 03:28:35;;;;;;;46.73;34.60;;;;;;;10.19;55.91;102556.38;5020629;28;20591;-72
2022/03/25 03:31:00;;;;;;;49.00;33.07;;;;;;;10.14;56.38;102547.50;5020107;28;20834;-72
2022/03/25 03:33:26;;;;;;;46.30;33.93;;;;;;;10.41;55.52;102546.00;5035759;28;20462;-72
2022/03/25 03:35:51;;;;;;;53.20;36.27;;;;;;;10.27;55.89;102548.06;5020893;28;20194;-74
2022/03/25 03:38:16;;;;;;;48.63;35.87;;;;;;;10.08;56.10;102559.44;5020308;28;20175;-71
2022/03/25 03:40:42;;;;;;;49.93;34.80;;;;;;;10.08;56.32;102559.44;5019968;28;20175;-72
2022/03/25 03:43:07;;;;;;;52.87;35.37;;;;;;;10.16;56.33;102559.78;5020565;28;20182;-72
2022/03/25 03:45:33;;;;;;;56.17;35.53;;;;;;;10.22;56.65;102553.91;5019904;28;20190;-71
2022/03/25 03:47:58;;;;;;;49.13;35.80;;;;;;;10.19;56.55;102554.69;5020152;28;20166;-72
2022/03/25 03:50:24;;;;;;;55.03;37.17;;;;;;;10.20;55.97;102559.06;5020414;28;20245;-73
2022/03/25 03:52:50;;;;;;;50.17;36.00;;;;;;;10.00;56.56;102558.25;5020092;28;20175;-73
2022/03/25 03:55:15;;;;;;;59.30;38.57;;;;;;;9.96;57.44;102553.75;5020001;28;20217;-73
2022/03/25 03:57:41;;;;;;;52.63;36.40;;;;;;;9.69;58.45;102554.34;5019707;28;20254;-72
2022/03/25 04:00:12;;;;;;;56.50;37.67;;;;;;;9.63;58.57;102554.09;5019920;28;20546;-73
2022/03/25 04:02:38;;;;;;;49.97;35.20;;;;;;;9.89;57.98;102562.09;5019835;28;20417;-72
2022/03/25 04:05:05;;;;;;;56.90;37.57;;;;;;;9.68;58.46;102560.38;5020158;28;20453;-72
2022/03/25 04:07:30;;;;;;;53.20;36.17;;;;;;;9.64;58.58;102555.88;5019780;28;20206;-72
2022/03/25 04:09:56;;;;;;;60.57;37.73;;;;;;;9.54;58.69;102556.28;5019532;28;20886;-72
2022/03/25 04:12:22;;;;;;;59.10;36.53;;;;;;;9.63;59.65;102561.88;5019920;28;20185;-73
2022/03/25 04:14:48;;;;;;;59.63;36.73;;;;;;;9.54;59.80;102561.50;5019564;28;20258;-72
2022/03/25 04:17:13;;;;;;;66.53;40.00;;;;;;;9.74;58.81;102567.56;5019638;28;20174;-72
2022/03/25 04:19:39;;;;;;;51.43;37.23;;;;;;;9.65;59.46;102567.16;5035708;28;20414;-72
2022/03/25 04:22:04;;;;;;;47.93;34.43;;;;;;;8.98;61.49;102574.66;5019300;28;20206;-72
2022/03/25 04:24:29;;;;;;;52.70;35.80;;;;;;;9.14;61.18;102585.78;5019434;28;20280;-72
2022/03/25 04:26:55;;;;;;;58.67;37.27;;;;;;;9.16;60.80;102579.81;5020111;28;20241;-71
2022/03/25 04:29:21;;;;;;;52.03;35.03;;;;;;;9.19;60.52;102582.56;5020026;28;20183;-73
2022/03/25 04:31:46;;;;;;;51.90;35.70;;;;;;;8.89;61.30;102576.81;5019194;28;20213;-73
2022/03/25 04:34:12;;;;;;;57.57;38.27;;;;;;;8.97;61.52;102580.72;5019025;28;20513;-71
2022/03/25 04:36:37;;;;;;;54.53;36.97;;;;;;;9.30;61.13;102583.03;5019144;28;20438;-73
2022/03/25 04:39:02;;;;;;;50.70;37.00;;;;;;;9.31;60.37;102578.72;5019570;28;20170;-73
2022/03/25 04:41:29;;;;;;;51.53;37.23;;;;;;;9.17;60.87;102585.91;5018903;28;20195;-73
2022/03/25 04:43:54;;;;;;;57.63;37.83;;;;;;;9.20;60.84;102570.41;5018997;28;20480;-73
2022/03/25 04:46:19;;;;;;;58.77;38.87;;;;;;;9.02;61.00;102579.19;5019641;28;20167;-74
2022/03/25 04:48:45;;;;;;;55.43;38.13;;;;;;;8.85;61.69;102573.22;5019124;28;20183;-73
2022/03/25 04:51:11;;;;;;;56.73;37.47;;;;;;;8.96;61.77;102583.22;5018812;28;20447;-73
2022/03/25 04:53:37;;;;;;;53.30;36.77;;;;;;;8.87;62.00;102581.97;5019168;28;20163;-73
2022/03/25 04:56:04;;;;;;;56.80;38.80;;;;;;;8.94;61.59;102590.94;5018706;28;20436;-73
2022/03/25 04:58:29;;;;;;;56.90;39.00;;;;;;;9.04;60.92;102584.47;5018847;28;20425;-73
2022/03/25 05:00:55;;;;;;;56.70;39.93;;;;;;;8.73;62.00;102583.94;5019175;28;20409;-73
2022/03/25 05:03:20;;;;;;;61.33;39.70;;;;;;;8.72;62.39;102592.53;5018669;28;20198;-72
2022/03/25 05:05:46;;;;;;;55.67;37.17;;;;;;;9.07;61.17;102587.22;5018669;28;20232;-73
2022/03/25 05:08:11;;;;;;;60.57;39.80;;;;;;;8.90;61.46;102587.34;5019260;28;20258;-72
2022/03/25 05:10:38;;;;;;;61.07;41.83;;;;;;;9.02;61.11;102586.97;5017784;28;20181;-73
2022/03/25 05:13:03;;;;;;;60.77;40.60;;;;;;;8.85;61.75;102582.72;5019088;28;20556;-72
2022/03/25 05:15:28;;;;;;;64.00;38.60;;;;;;;8.87;61.80;102591.50;5019161;28;20413;-73
2022/03/25 05:17:54;;;;;;;62.53;39.50;;;;;;;9.05;61.63;102589.75;5018574;28;20179;-73
2022/03/25 05:20:21;;;;;;;58.10;39.13;;;;;;;8.97;61.35;102592.81;5019812;28;20225;-73
2022/03/25 05:22:47;;;;;;;65.60;41.90;;;;;;;9.30;60.83;102582.16;5021387;28;20431;-72
2022/03/25 05:25:12;;;;;;;60.07;40.80;;;;;;;9.37;60.33;102587.69;5019365;28;20847;-73
2022/03/25 05:27:43;;;;;;;64.80;41.13;;;;;;;9.16;60.90;102591.94;5034455;28;20417;-72
2022/03/25 05:30:09;;;;;;;68.73;44.63;;;;;;;9.10;61.09;102596.03;5018590;28;20163;-72
2022/03/25 05:32:35;;;;;;;69.00;43.70;;;;;;;9.25;60.47;102600.16;5017264;28;20472;-72
2022/03/25 05:35:00;;;;;;;67.60;43.83;;;;;;;9.34;60.29;102592.75;5018114;28;20930;-73
2022/03/25 05:37:25;;;;;;;64.53;43.30;;;;;;;9.07;61.20;102598.50;5018631;28;20253;-72
2022/03/25 05:39:51;;;;;;;66.00;42.83;;;;;;;9.34;60.49;102600.56;5018344;28;20179;-73
2022/03/25 05:42:16;;;;;;;69.40;44.10;;;;;;;9.60;60.00;102601.72;5018168;28;20182;-72
2022/03/25 05:44:41;;;;;;;77.73;46.27;;;;;;;9.64;59.49;102601.88;5018621;28;20195;-73
2022/03/25 05:47:07;;;;;;;63.50;41.73;;;;;;;9.72;59.14;102603.09;5018352;28;20250;-73
2022/03/25 05:49:32;;;;;;;68.33;43.70;;;;;;;9.66;59.45;102602.81;5018609;28;20193;-72
2022/03/25 05:51:57;;;;;;;64.23;42.53;;;;;;;9.54;60.07;102596.25;5018385;28;20167;-73
2022/03/25 05:54:22;;;;;;;68.27;45.43;;;;;;;9.73;59.51;102604.88;5018188;28;20309;-73
2022/03/25 05:56:48;;;;;;;66.43;43.73;;;;;;;10.02;58.65;102607.81;5018344;28;20540;-72
2022/03/25 05:59:13;;;;;;;65.00;42.33;;;;;;;9.98;58.99;102611.13;5017809;28;20186;-72
2022/03/25 06:01:38;;;;;;;65.90;43.63;;;;;;;10.13;58.39;102611.75;5016994;28;20167;-72
2022/03/25 06:04:04;;;;;;;61.10;43.43;;;;;;;10.20;58.18;102624.22;5017872;28;20199;-71
2022/03/25 06:06:29;;;;;;;64.63;44.07;;;;;;;10.66;57.04;102622.59;5018506;28;20187;-73
2022/03/25 06:08:55;;;;;;;68.90;42.57;;;;;;;10.63;56.97;102625.09;5018269;28;20179;-75
2022/03/25 06:11:22;;;;;;;73.43;47.93;;;;;;;10.44;57.58;102629.59;5017367;28;20453;-75
2022/03/25 06:13:47;;;;;;;71.27;45.50;;;;;;;10.65;56.82;102633.88;5018566;28;20497;-74
2022/03/25 06:16:13;;;;;;;68.53;46.40;;;;;;;11.17;55.20;102628.91;5017954;28;20428;-74
2022/03/25 06:18:38;;;;;;;61.90;43.97;;;;;;;11.66;54.41;102624.59;5018083;28;20179;-73
2022/03/25 06:21:03;;;;;;;62.57;43.60;;;;;;;12.10;52.61;102633.13;5018754;28;20167;-74
2022/03/25 06:23:28;;;;;;;65.77;46.47;;;;;;;11.95;53.27;102633.47;5021385;28;20444;-73
2022/03/25 06:25:54;;;;;;;63.00;44.63;;;;;;;12.39;51.52;102626.22;5021573;28;20409;-74
2022/03/25 06:28:22;;;;;;;58.70;45.17;;;;;;;12.48;51.24;102627.38;5022092;28;20245;-74
2022/03/25 06:30:47;;;;;;;58.20;43.53;;;;;;;12.61;51.05;102621.66;5021932;28;20401;-73
2022/03/25 06:33:13;;;;;;;63.87;45.40;;;;;;;12.69;50.50;102620.22;5021526;28;20476;-75
2022/03/25 06:35:39;;;;;;;65.77;45.00;;;;;;;13.18;49.79;102622.50;5020833;28;20553;-74
2022/03/25 06:38:05;;;;;;;87.63;53.70;;;;;;;13.75;48.73;102616.28;5020288;28;20799;-73
2022/03/25 06:40:31;;;;;;;21.07;18.87;;;;;;;16.67;48.50;102609.16;5020743;28;20163;-69
2022/03/25 06:42:57;;;;;;;35.20;25.90;;;;;;;18.23;45.91;102602.09;5021316;28;20387;-66
2022/03/25 06:45:23;;;;;;;51.93;38.77;;;;;;;18.93;42.40;102604.31;5020641;28;20627;-66
2022/03/25 06:47:48;;;;;;;77.53;51.83;;;;;;;16.64;41.22;102622.25;5032462;28;20276;-74
2022/03/25 06:50:15;;;;;;;64.77;47.30;;;;;;;15.43;43.82;102622.78;5023789;28;20452;-77
2022/03/25 06:52:41;;;;;;;62.30;49.50;;;;;;;14.14;46.30;102628.66;5039765;28;20217;-73
2022/03/25 06:55:07;;;;;;;61.70;47.77;;;;;;;15.25;44.65;102627.66;5032042;28;20392;-73
2022/03/25 06:57:32;;;;;;;68.63;49.27;;;;;;;15.21;44.02;102629.38;5021015;28;20393;-73
2022/03/25 06:59:58;;;;;;;73.63;49.07;;;;;;;15.06;44.30;102618.53;5020565;28;20393;-73
2022/03/25 07:02:23;;;;;;;63.97;48.33;;;;;;;15.49;43.70;102630.81;5020481;28;20533;-73
2022/03/25 07:04:49;;;;;;;68.27;48.80;;;;;;;15.21;44.12;102629.38;5039103;28;20298;-73
2022/03/25 07:07:18;;;;;;;74.67;50.03;;;;;;;15.34;43.90;102627.88;5040412;28;20175;-73
2022/03/25 07:09:43;;;;;;;66.47;51.50;;;;;;;15.42;43.76;102634.16;5039503;28;20166;-73
2022/03/25 07:12:10;;;;;;;61.77;51.53;;;;;;;15.64;43.29;102637.19;5040533;28;20424;-74
2022/03/25 07:14:35;;;;;;;79.03;53.20;;;;;;;16.18;42.43;102635.56;5039301;28;20238;-73
2022/03/25 07:17:00;;;;;;;66.30;49.73;;;;;;;15.99;42.96;102631.75;5035128;28;20413;-76
2022/03/25 07:19:25;;;;;;;66.10;50.67;;;;;;;16.76;40.96;102634.72;5007832;28;20178;-77
2022/03/25 07:21:52;;;;;;;67.63;52.93;;;;;;;16.78;41.02;102633.88;5026649;28;20217;-77
2022/03/25 07:24:17;;;;;;;63.80;50.33;;;;;;;15.79;42.73;102645.41;5019524;28;20206;-76
2022/03/25 07:26:43;;;;;;;66.03;51.50;;;;;;;16.05;42.36;102647.66;5020888;28;20430;-77
2022/03/25 07:29:09;;;;;;;67.43;51.93;;;;;;;16.38;41.22;102651.69;5020383;28;20198;-74
2022/03/25 07:31:34;;;;;;;61.40;49.60;;;;;;;18.04;38.80;102633.63;5019887;28;20167;-75
2022/03/25 07:33:59;;;;;;;74.97;51.33;;;;;;;18.32;37.84;102641.75;5019271;28;20477;-76
2022/03/25 07:36:25;;;;;;;59.47;50.30;;;;;;;17.54;39.65;102639.25;5020132;28;20202;-74
2022/03/25 07:38:51;;;;;;;60.73;51.03;;;;;;;18.08;38.21;102637.19;5012284;28;20520;-76
2022/03/25 07:41:16;;;;;;;65.63;50.70;;;;;;;16.69;40.49;102651.28;4999727;28;20218;-77
2022/03/25 07:43:42;;;;;;;55.67;49.57;;;;;;;17.12;40.10;102655.44;5004267;28;20227;-74
2022/03/25 07:46:07;;;;;;;75.33;51.57;;;;;;;17.85;38.34;102651.88;5018127;28;20214;-75
2022/03/25 07:48:32;;;;;;;65.60;51.00;;;;;;;18.80;37.01;102645.59;5019978;28;20544;-78
2022/03/25 07:50:58;;;;;;;62.20;51.07;;;;;;;18.93;36.54;102645.72;5013881;28;20183;-71
2022/03/25 07:53:24;;;;;;;63.27;49.47;;;;;;;18.93;36.54;102656.28;5022858;28;20187;-71
2022/03/25 07:55:51;;;;;;;61.13;51.73;;;;;;;18.59;36.79;102666.59;5018088;28;20567;-71
2022/03/25 07:58:20;;;;;;;63.83;49.60;;;;;;;18.11;38.03;102664.47;5018991;28;20611;-74
2022/03/25 08:00:46;;;;;;;56.93;49.33;;;;;;;18.08;38.30;102667.09;5026644;28;20425;-75
2022/03/25 08:03:12;;;;;;;63.10;51.27;;;;;;;18.38;37.31;102673.50;5010143;28;20445;-74
2022/03/25 08:05:38;;;;;;;56.03;49.93;;;;;;;19.04;36.48;102669.56;5025487;28;20698;-74
2022/03/25 08:08:04;;;;;;;57.53;51.33;;;;;;;19.02;36.74;102672.19;5021564;28;20520;-73
2022/03/25 08:10:30;;;;;;;55.37;49.27;;;;;;;18.81;36.91;102671.16;5029087;28;20419;-73
2022/03/25 08:12:56;;;;;;;62.40;52.13;;;;;;;19.57;35.35;102675.97;5018473;28;20444;-73
2022/03/25 08:15:23;;;;;;;63.93;52.17;;;;;;;20.67;34.03;102676.94;5002330;28;20502;-72
2022/03/25 08:17:51;;;;;;;64.37;56.97;;;;;;;19.47;35.26;102696.19;5028145;28;20422;-71
2022/03/25 08:20:28;;;;;;;56.60;49.47;;;;;;;20.08;33.95;102686.66;5018562;28;20424;-72
2022/03/25 08:22:55;;;;;;;56.17;50.03;;;;;;;20.70;32.92;102684.91;5018968;28;20440;-72
2022/03/25 08:28:05;;;;;;;57.13;46.47;;;;;;;19.83;33.72;102679.56;5001407;28;20440;-72
2022/03/25 08:30:32;;;;;;;55.37;45.07;;;;;;;20.69;32.51;102685.81;4998559;28;20415;-70
2022/03/25 08:32:58;;;;;;;54.20;45.50;;;;;;;20.03;33.52;102686.69;4998347;28;20314;-72
2022/03/25 08:35:25;;;;;;;51.53;43.83;;;;;;;20.19;33.11;102684.94;5008852;28;20521;-72
2022/03/25 08:37:51;;;;;;;55.83;42.90;;;;;;;21.29;31.23;102680.31;4989960;28;20842;-74
2022/03/25 08:40:16;;;;;;;50.17;40.67;;;;;;;20.71;31.91;102681.38;5018585;28;20437;-75
2022/03/25 08:42:41;;;;;;;50.73;43.83;;;;;;;20.66;31.29;102686.69;5021420;28;20178;-74
2022/03/25 08:45:07;;;;;;;49.97;41.07;;;;;;;21.10;31.64;102690.13;5018557;28;20198;-75
2022/03/25 08:47:32;;;;;;;49.17;43.83;;;;;;;21.50;30.58;102682.00;5021308;28;20183;-71
2022/03/25 08:50:00;;;;;;;50.23;40.40;;;;;;;22.27;29.84;102678.00;5018270;28;20183;-71
2022/03/25 08:52:25;;;;;;;47.40;38.90;;;;;;;20.91;30.78;102677.81;5018223;28;20210;-76
2022/03/25 08:54:52;;;;;;;47.43;37.70;;;;;;;20.33;31.77;102674.34;5018006;28;20445;-74
2022/03/25 08:57:17;;;;;;;49.60;39.10;;;;;;;20.51;31.14;102684.03;5017938;28;20265;-71
2022/03/25 08:59:42;;;;;;;42.17;35.80;;;;;;;21.41;30.08;102678.53;5015283;28;20508;-70
2022/03/25 09:02:08;;;;;;;42.20;35.60;;;;;;;22.34;28.65;102673.50;5009187;28;20176;-71
2022/03/25 09:04:33;;;;;;;45.70;35.07;;;;;;;20.40;31.47;102689.34;5005975;28;20215;-72
2022/03/25 09:07:00;;;;;;;42.17;35.10;;;;;;;20.19;31.37;102683.16;5016051;28;20831;-73
2022/03/25 09:09:25;;;;;;;36.20;31.40;;;;;;;20.53;30.85;102688.44;5018098;28;20183;-73
2022/03/25 09:11:50;;;;;;;42.30;33.77;;;;;;;21.07;30.25;102683.94;5009337;28;20480;-72
2022/03/25 09:14:17;;;;;;;45.90;33.50;;;;;;;21.70;29.38;102678.38;5016746;28;20199;-72
2022/03/25 09:16:43;;;;;;;34.43;30.77;;;;;;;21.23;29.98;102687.44;5017406;28;20183;-72
2022/03/25 09:19:08;;;;;;;38.67;30.83;;;;;;;21.46;29.14;102682.03;5016846;28;20436;-72
2022/03/25 09:21:34;;;;;;;43.47;32.93;;;;;;;21.79;29.40;102685.44;5017098;28;20429;-72
2022/03/25 09:23:59;;;;;;;38.37;32.33;;;;;;;22.40;28.30;102681.44;5017135;28;20365;-72
2022/03/25 09:26:25;;;;;;;37.13;32.30;;;;;;;22.54;28.22;102687.53;5029207;28;20215;-72
2022/03/25 09:28:50;;;;;;;41.20;32.87;;;;;;;23.41;27.19;102685.69;5014313;28;20183;-72
2022/03/25 09:31:16;;;;;;;45.70;32.70;;;;;;;24.02;26.33;102678.63;5010870;28;20238;-71
2022/03/25 09:33:41;;;;;;;36.43;32.50;;;;;;;23.05;27.04;102684.31;5010864;28;20211;-72
2022/03/25 09:36:07;;;;;;;42.40;32.07;;;;;;;23.09;26.92;102685.16;5017543;28;20457;-72
2022/03/25 09:38:32;;;;;;;36.27;32.13;;;;;;;23.05;26.93;102684.31;5016132;28;20170;-73
2022/03/25 09:40:57;;;;;;;37.83;32.70;;;;;;;23.30;26.67;102684.06;5002145;28;20179;-71
2022/03/25 09:43:23;;;;;;;41.53;32.90;;;;;;;22.92;26.85;102680.06;5016931;28;20309;-74
2022/03/25 09:45:48;;;;;;;40.00;33.87;;;;;;;23.50;25.91;102677.56;5032777;28;20179;-71
2022/03/25 09:48:14;;;;;;;41.53;37.27;;;;;;;23.00;26.93;102683.50;5016875;28;20182;-73
2022/03/25 09:50:40;;;;;;;41.73;35.30;;;;;;;23.48;26.20;102682.94;5017924;28;20159;-72
2022/03/25 09:53:06;;;;;;;39.27;35.10;;;;;;;23.34;26.03;102695.53;5011686;28;20177;-72
2022/03/25 09:55:34;;;;;;;42.00;34.27;;;;;;;21.84;27.98;102696.91;5011227;28;20452;-73
2022/03/25 09:58:00;;;;;;;40.97;34.37;;;;;;;22.25;27.67;102692.19;5009249;28;20423;-73
2022/03/25 10:00:25;;;;;;;38.00;34.00;;;;;;;22.67;27.06;102692.72;5012825;28;20808;-73
2022/03/25 10:02:50;;;;;;;41.80;35.00;;;;;;;23.09;26.69;102693.16;5002077;28;20179;-73
2022/03/25 10:05:17;;;;;;;38.13;33.87;;;;;;;23.55;25.99;102691.72;5014263;28;20277;-73
2022/03/25 10:07:45;;;;;;;38.47;32.27;;;;;;;22.50;27.20;102696.44;5002253;28;20192;-72
2022/03/25 10:10:15;;;;;;;41.97;34.20;;;;;;;23.87;25.58;102688.59;5009299;28;20421;-73
2022/03/25 10:12:43;;;;;;;34.77;30.97;;;;;;;23.18;26.95;102695.72;5016793;28;20485;-73
2022/03/25 10:15:16;;;;;;;39.97;31.43;;;;;;;23.39;26.20;102688.38;5002060;28;20500;-73
2022/03/25 10:18:01;;;;;;;36.17;31.50;;;;;;;23.46;26.50;102686.50;5004070;28;20430;-72
2022/03/25 10:20:38;;;;;;;47.63;32.37;;;;;;;23.10;27.32;102692.25;5020892;28;20410;-72
2022/03/25 10:23:17;;;;;;;35.70;28.13;;;;;;;23.67;25.13;102694.19;5021211;28;20508;-73
2022/03/25 10:25:51;;;;;;;30.27;27.00;;;;;;;23.49;24.91;102694.44;5021490;28;20870;-73
2022/03/25 10:28:22;;;;;;;30.20;26.93;;;;;;;23.28;25.55;102695.63;5036940;28;20405;-73
2022/03/25 10:30:52;;;;;;;35.60;26.97;;;;;;;23.56;25.07;102690.81;5021008;28;20433;-73
2022/03/25 10:33:32;;;;;;;31.80;28.40;;;;;;;23.48;25.19;102698.91;5021237;28;20859;-73
2022/03/25 10:36:09;;;;;;;30.17;26.97;;;;;;;22.17;26.20;102695.75;5021221;28;20422;-73
2022/03/25 10:38:54;;;;;;;30.90;26.50;;;;;;;22.36;26.67;102696.53;5021299;28;20434;-73
2022/03/25 10:41:24;;;;;;;31.60;24.97;;;;;;;23.24;26.18;102696.56;5021079;28;20412;-73
2022/03/25 10:43:53;;;;;;;23.13;19.57;;;;;;;23.30;25.24;102694.72;5021158;28;20480;-73
2022/03/25 10:46:40;;;;;;;28.53;22.37;;;;;;;23.48;25.64;102693.56;5020173;28;20678;-73
2022/03/25 10:49:13;;;;;;;32.93;27.70;;;;;;;23.97;25.72;102693.81;5020844;28;20879;-73
2022/03/25 10:51:41;;;;;;;33.87;28.60;;;;;;;24.77;24.23;102689.78;5020646;28;20504;-74
2022/03/25 10:54:08;;;;;;;29.63;23.63;;;;;;;24.37;24.52;102685.16;5020632;28;20448;-73
2022/03/25 10:56:45;;;;;;;26.63;20.93;;;;;;;24.55;23.75;102684.81;5020799;28;20421;-73
2022/03/25 10:59:30;;;;;;;22.10;18.90;;;;;;;22.79;26.28;102684.63;5020523;28;20410;-73
2022/03/25 11:02:03;;;;;;;26.33;20.20;;;;;;;21.91;27.33;102700.41;5020483;28;20505;-73
2022/03/25 11:04:29;;;;;;;28.33;21.80;;;;;;;22.36;27.06;102695.66;5020549;28;20812;-74
2022/03/25 11:06:56;;;;;;;29.60;22.03;;;;;;;21.87;27.95;102694.22;5020284;28;20421;-73
2022/03/25 11:09:23;;;;;;;29.53;23.43;;;;;;;21.92;28.13;102703.03;5019472;28;20171;-74
2022/03/25 11:11:50;;;;;;;29.80;22.77;;;;;;;22.79;26.73;102703.22;5020753;28;20417;-73